createdAt,value
2022-12-11T00:01:11.944Z,3.12
2022-12-11T00:03:40.595Z,3.18
2022-12-11T00:06:14.366Z,3.07
2022-12-11T00:08:43.147Z,2.94
2022-12-11T00:11:17.918Z,3.04
2022-12-11T00:13:46.041Z,2.89
2022-12-11T00:16:14.215Z,2.92
2022-12-11T00:18:42.387Z,3.01
2022-12-11T00:21:15.592Z,2.96
2022-12-11T00:23:44.017Z,2.88
2022-12-11T00:26:15.668Z,2.87
2022-12-11T00:28:44.431Z,2.95
2022-12-11T00:31:17.471Z,3.05
2022-12-11T00:33:48.903Z,3.03
2022-12-11T00:36:22.552Z,3.02
2022-12-11T00:38:51.484Z,3.05
2022-12-11T00:41:19.824Z,3.23
2022-12-11T00:43:48.471Z,3.64
2022-12-11T00:46:16.755Z,4.07
2022-12-11T00:48:46.125Z,4.40
2022-12-11T00:51:14.260Z,4.64
2022-12-11T00:53:44.043Z,4.84
2022-12-11T00:56:15.329Z,5.07
2022-12-11T00:58:43.689Z,5.16
2022-12-11T01:01:15.601Z,5.18
2022-12-11T01:03:43.937Z,5.32
2022-12-11T01:06:16.931Z,5.40
2022-12-11T01:08:47.819Z,5.47
2022-12-11T01:11:17.198Z,5.45
2022-12-11T01:13:46.262Z,5.20
2022-12-11T01:16:16.810Z,5.03
2022-12-11T01:18:45.522Z,4.81
2022-12-11T01:21:15.092Z,4.59
2022-12-11T01:23:43.192Z,4.44
2022-12-11T01:26:15.461Z,4.26
2022-12-11T01:28:44.402Z,4.16
2022-12-11T01:31:15.554Z,4.08
2022-12-11T01:33:44.108Z,4.01
2022-12-11T01:36:15.059Z,3.97
2022-12-11T01:38:43.341Z,3.90
2022-12-11T01:41:13.000Z,3.81
2022-12-11T01:44:03.053Z,3.85
2022-12-11T01:46:33.779Z,3.75
2022-12-11T01:49:04.855Z,3.73
2022-12-11T01:51:37.027Z,3.66
2022-12-11T01:54:12.334Z,3.82
2022-12-11T01:56:45.000Z,3.83
2022-12-11T01:59:15.483Z,3.71
2022-12-11T02:01:50.300Z,3.66
2022-12-11T02:04:19.752Z,3.71
2022-12-11T02:06:51.016Z,3.69
2022-12-11T02:09:23.346Z,3.62
2022-12-11T02:12:02.970Z,3.67
2022-12-11T02:14:39.572Z,3.70
2022-12-11T02:17:14.442Z,3.63
2022-12-11T02:20:01.821Z,3.56
2022-12-11T02:23:04.940Z,3.51
2022-12-11T02:25:38.859Z,3.45
2022-12-11T02:28:22.060Z,3.38
2022-12-11T02:30:56.895Z,3.36
2022-12-11T02:33:43.196Z,3.25
2022-12-11T02:36:12.306Z,3.37
2022-12-11T02:38:46.838Z,3.23
2022-12-11T02:41:15.257Z,3.07
2022-12-11T02:43:45.656Z,2.94
2022-12-11T02:46:15.265Z,2.91
2022-12-11T02:49:10.504Z,2.96
2022-12-11T02:51:43.213Z,2.93
2022-12-11T02:54:20.214Z,2.97
2022-12-11T02:57:27.709Z,2.90
2022-12-11T03:00:21.567Z,2.93
2022-12-11T03:02:49.961Z,3.02
2022-12-11T03:05:18.224Z,3.19
2022-12-11T03:07:46.737Z,3.11
2022-12-11T03:10:19.661Z,3.05
2022-12-11T03:12:54.117Z,3.06
2022-12-11T03:15:33.572Z,2.94
2022-12-11T03:18:10.410Z,2.90
2022-12-11T03:20:44.005Z,3.00
2022-12-11T03:23:22.584Z,2.98
2022-12-11T03:25:57.366Z,3.03
2022-12-11T03:28:31.195Z,3.00
2022-12-11T03:31:09.211Z,3.08
2022-12-11T03:33:41.371Z,3.13
2022-12-11T03:36:15.406Z,3.18
2022-12-11T03:38:50.112Z,3.13
2022-12-11T03:41:21.825Z,3.06
2022-12-11T03:43:52.316Z,3.09
2022-12-11T03:46:26.497Z,3.16
2022-12-11T03:48:57.454Z,3.14
2022-12-11T03:51:26.577Z,3.11
2022-12-11T03:53:56.255Z,3.22
2022-12-11T03:56:27.794Z,3.15
2022-12-11T03:58:55.935Z,3.10
2022-12-11T04:01:25.457Z,3.13
2022-12-11T04:03:54.110Z,3.17
2022-12-11T04:06:22.263Z,3.18
2022-12-11T04:08:50.425Z,3.17
2022-12-11T04:11:36.787Z,3.18
2022-12-11T04:14:29.738Z,3.23
2022-12-11T04:17:02.137Z,3.23
2022-12-11T04:19:48.056Z,3.09
2022-12-11T04:22:36.981Z,3.16
2022-12-11T04:25:09.869Z,3.12
2022-12-11T04:27:58.120Z,3.09
2022-12-11T04:30:33.792Z,3.14
2022-12-11T04:33:03.794Z,3.14
2022-12-11T04:35:31.935Z,3.28
2022-12-11T04:38:01.244Z,3.28
2022-12-11T04:40:29.428Z,3.24
2022-12-11T04:42:57.526Z,3.25
2022-12-11T04:45:25.583Z,3.30
2022-12-11T04:47:53.685Z,3.30
2022-12-11T04:50:23.282Z,3.25
2022-12-11T04:52:51.381Z,3.22
2022-12-11T04:55:19.607Z,3.21
2022-12-11T04:57:47.760Z,3.18
2022-12-11T05:00:17.243Z,3.17
2022-12-11T05:02:45.333Z,3.22
2022-12-11T05:05:14.303Z,3.32
2022-12-11T05:07:43.975Z,3.37
2022-12-11T05:10:12.139Z,3.26
2022-12-11T05:12:40.263Z,3.26
2022-12-11T05:15:09.982Z,3.15
2022-12-11T05:17:38.328Z,3.20
2022-12-11T05:20:07.879Z,3.24
2022-12-11T05:22:35.979Z,3.31
2022-12-11T05:25:06.463Z,3.19
2022-12-11T05:27:35.107Z,3.29
2022-12-11T05:30:03.289Z,3.30
2022-12-11T05:32:31.981Z,3.31
2022-12-11T05:35:00.116Z,3.21
2022-12-11T05:37:28.404Z,3.19
2022-12-11T05:39:56.470Z,3.22
2022-12-11T05:42:29.022Z,3.25
2022-12-11T05:44:57.352Z,3.21
2022-12-11T05:47:25.725Z,3.18
2022-12-11T05:49:53.966Z,3.11
2022-12-11T05:52:22.126Z,3.15
2022-12-11T05:54:50.636Z,3.03
2022-12-11T05:57:18.773Z,2.97
2022-12-11T05:59:48.179Z,3.06
2022-12-11T06:02:16.334Z,3.07
2022-12-11T06:04:44.464Z,2.98
2022-12-11T06:07:12.796Z,2.96
2022-12-11T06:09:40.852Z,2.90
2022-12-11T06:12:08.936Z,2.86
2022-12-11T06:14:36.993Z,2.92
2022-12-11T06:17:06.582Z,2.85
2022-12-11T06:19:36.969Z,2.88
2022-12-11T06:22:05.878Z,3.21
2022-12-11T06:24:33.974Z,3.67
2022-12-11T06:27:02.213Z,4.07
2022-12-11T06:29:30.356Z,4.33
2022-12-11T06:31:58.507Z,4.52
2022-12-11T06:34:28.112Z,4.81
2022-12-11T06:36:56.177Z,5.06
2022-12-11T06:39:24.245Z,5.21
2022-12-11T06:41:52.325Z,5.38
2022-12-11T06:44:20.408Z,5.45
2022-12-11T06:46:48.465Z,5.49
2022-12-11T06:49:16.930Z,5.53
2022-12-11T06:51:46.446Z,5.60
2022-12-11T06:54:14.787Z,5.66
2022-12-11T06:56:42.954Z,5.71
2022-12-11T06:59:13.543Z,5.62
2022-12-11T07:01:41.844Z,5.62
2022-12-11T07:04:10.776Z,5.61
2022-12-11T07:06:38.848Z,5.65
2022-12-11T07:09:08.338Z,5.67
2022-12-11T07:11:36.398Z,5.67
2022-12-11T07:14:04.518Z,5.60
2022-12-11T07:16:32.648Z,5.36
2022-12-11T07:19:01.295Z,5.04
2022-12-11T07:21:29.803Z,4.78
2022-12-11T07:23:57.826Z,4.50
2022-12-11T07:26:27.624Z,4.41
2022-12-11T07:28:58.725Z,4.19
2022-12-11T07:31:29.786Z,4.00
2022-12-11T07:33:59.482Z,3.89
2022-12-11T07:36:29.541Z,3.76
2022-12-11T07:38:57.983Z,3.68
2022-12-11T07:41:28.782Z,3.62
2022-12-11T07:43:57.157Z,3.52
2022-12-11T07:46:29.226Z,3.45
2022-12-11T07:48:57.449Z,3.37
2022-12-11T07:51:28.227Z,3.37
2022-12-11T07:53:59.028Z,3.27
2022-12-11T07:56:29.917Z,3.22
2022-12-11T07:59:01.194Z,3.16
2022-12-11T08:01:31.899Z,3.08
2022-12-11T08:04:00.465Z,3.00
2022-12-11T08:06:30.640Z,2.96
2022-12-11T08:09:00.936Z,2.99
2022-12-11T08:11:30.865Z,3.13
2022-12-11T08:14:00.188Z,3.12
2022-12-11T08:16:28.727Z,3.09
2022-12-11T08:18:56.825Z,3.09
2022-12-11T08:21:27.801Z,3.10
2022-12-11T08:23:56.586Z,2.96
2022-12-11T08:26:27.975Z,3.05
2022-12-11T08:28:58.547Z,3.10
2022-12-11T08:31:27.835Z,3.06
2022-12-11T08:33:58.986Z,3.11
2022-12-11T08:36:27.162Z,3.10
2022-12-11T08:38:56.905Z,3.08
2022-12-11T08:41:28.057Z,3.05
2022-12-11T08:44:00.323Z,3.18
2022-12-11T08:46:34.413Z,3.18
2022-12-11T08:49:02.547Z,3.21
2022-12-11T08:51:32.013Z,3.18
2022-12-11T08:54:02.419Z,3.11
2022-12-11T08:56:31.109Z,3.16
2022-12-11T08:59:04.091Z,3.09
2022-12-11T09:01:37.649Z,3.12
2022-12-11T09:04:05.974Z,3.17
2022-12-11T09:06:34.799Z,3.21
2022-12-11T09:09:04.404Z,3.26
2022-12-11T09:11:35.809Z,3.34
2022-12-11T09:14:08.179Z,3.40
2022-12-11T09:16:41.250Z,3.56
2022-12-11T09:19:13.427Z,3.56
2022-12-11T09:21:44.655Z,3.53
2022-12-11T09:24:14.914Z,3.70
2022-12-11T09:26:43.578Z,3.74
2022-12-11T09:29:13.867Z,3.85
2022-12-11T09:31:43.259Z,3.99
2022-12-11T09:34:14.658Z,4.11
2022-12-11T09:36:44.213Z,4.20
2022-12-11T09:39:14.873Z,4.14
2022-12-11T09:41:56.254Z,4.24
2022-12-11T09:44:39.662Z,4.29
2022-12-11T09:47:21.513Z,4.36
2022-12-11T09:49:55.974Z,4.22
2022-12-11T09:52:32.967Z,4.22
2022-12-11T09:55:05.337Z,4.20
2022-12-11T09:57:45.393Z,4.17
2022-12-11T10:00:25.538Z,4.14
2022-12-11T10:03:21.728Z,4.15
2022-12-11T10:06:04.187Z,4.14
2022-12-11T10:08:40.155Z,4.19
2022-12-11T10:11:32.187Z,4.20
2022-12-11T10:14:09.686Z,4.33
2022-12-11T10:16:44.913Z,4.33
2022-12-11T10:19:20.127Z,4.32
2022-12-11T10:21:50.318Z,4.34
2022-12-11T10:24:59.310Z,4.37
2022-12-11T10:27:19.367Z,4.35
2022-12-11T10:29:48.321Z,4.30
2022-12-11T10:32:25.373Z,4.31
2022-12-11T10:35:00.750Z,4.26
2022-12-11T10:37:29.435Z,4.29
2022-12-11T10:39:57.543Z,4.37
2022-12-11T10:42:25.629Z,4.32
2022-12-11T10:44:59.886Z,4.29
2022-12-11T10:47:29.981Z,4.35
2022-12-11T10:50:00.686Z,4.42
2022-12-11T10:52:34.163Z,4.48
2022-12-11T10:55:05.971Z,4.43
2022-12-11T10:57:37.019Z,4.47
2022-12-11T11:00:09.574Z,4.43
2022-12-11T11:02:40.737Z,4.43
2022-12-11T11:05:16.838Z,4.47
2022-12-11T11:07:45.205Z,4.49
2022-12-11T11:10:18.799Z,4.53
2022-12-11T11:12:50.040Z,4.50
2022-12-11T11:15:23.587Z,4.55
2022-12-11T11:17:56.243Z,4.58
2022-12-11T11:20:27.938Z,4.58
2022-12-11T11:22:59.971Z,4.53
2022-12-11T11:25:32.632Z,4.54
2022-12-11T11:28:04.657Z,4.53
2022-12-11T11:30:37.491Z,4.56
2022-12-11T11:33:14.686Z,4.62
2022-12-11T11:35:54.234Z,4.63
2022-12-11T11:38:26.028Z,4.55
2022-12-11T11:41:07.691Z,4.56
2022-12-11T11:43:45.058Z,4.53
2022-12-11T11:46:18.819Z,4.52
2022-12-11T11:48:57.572Z,4.60
2022-12-11T11:51:33.102Z,4.71
2022-12-11T11:54:12.221Z,4.71
2022-12-11T11:56:40.633Z,4.67
2022-12-11T11:59:19.549Z,4.75
2022-12-11T12:01:48.400Z,4.86
2022-12-11T12:04:17.878Z,4.84
2022-12-11T12:07:08.924Z,4.89
2022-12-11T12:09:50.181Z,4.92
2022-12-11T12:12:33.754Z,4.95
2022-12-11T12:15:30.748Z,4.91
2022-12-11T12:18:08.045Z,4.98
2022-12-11T12:20:48.769Z,4.95
2022-12-11T12:23:36.627Z,4.91
2022-12-11T12:26:15.890Z,4.87
2022-12-11T12:28:53.829Z,4.94
2022-12-11T12:32:04.549Z,4.97
2022-12-11T12:34:52.732Z,4.87
2022-12-11T12:37:43.721Z,5.02
2022-12-11T12:40:21.883Z,5.02
2022-12-11T12:42:59.352Z,5.03
2022-12-11T12:45:33.707Z,5.09
2022-12-11T12:48:02.918Z,5.13
2022-12-11T12:50:42.770Z,5.09
2022-12-11T12:53:20.384Z,5.00
2022-12-11T12:55:49.925Z,4.94
2022-12-11T12:58:30.233Z,4.99
2022-12-11T13:01:09.724Z,5.01
2022-12-11T13:03:50.917Z,5.01
2022-12-11T13:06:37.932Z,4.96
2022-12-11T13:09:18.673Z,4.91
2022-12-11T13:11:50.127Z,4.95
2022-12-11T13:14:31.051Z,5.02
2022-12-11T13:17:26.328Z,4.98
2022-12-11T13:20:15.163Z,5.00
2022-12-11T13:23:08.884Z,5.02
2022-12-11T13:25:54.379Z,4.91
2022-12-11T13:28:28.588Z,4.87
2022-12-11T13:31:27.270Z,4.87
2022-12-11T13:33:58.389Z,4.91
2022-12-11T13:36:34.062Z,4.83
2022-12-11T13:39:17.459Z,4.93
2022-12-11T13:41:51.362Z,4.97
2022-12-11T13:44:25.669Z,4.81
2022-12-11T13:46:56.900Z,4.79
2022-12-11T13:49:29.258Z,4.79
2022-12-11T13:52:00.506Z,4.79
2022-12-11T13:54:59.165Z,4.72
2022-12-11T13:57:29.328Z,4.74
2022-12-11T13:59:59.513Z,4.77
2022-12-11T14:02:33.126Z,4.84
2022-12-11T14:05:06.945Z,4.86
2022-12-11T14:07:39.200Z,4.86
2022-12-11T14:10:17.072Z,4.75
2022-12-11T14:12:57.406Z,4.74
2022-12-11T14:15:29.152Z,4.69
2022-12-11T14:17:59.316Z,4.69
2022-12-11T14:20:31.009Z,4.71
2022-12-11T14:23:07.659Z,4.70
2022-12-11T14:25:36.045Z,4.64
2022-12-11T14:28:05.652Z,4.61
2022-12-11T14:30:37.496Z,4.63
2022-12-11T14:33:06.871Z,4.58
2022-12-11T14:35:40.330Z,4.55
2022-12-11T14:38:17.576Z,4.58
2022-12-11T14:40:51.604Z,4.64
2022-12-11T14:43:29.412Z,4.66
2022-12-11T14:46:02.990Z,4.64
2022-12-11T14:48:37.131Z,4.68
2022-12-11T14:51:09.498Z,4.64
2022-12-11T14:53:42.807Z,4.65
2022-12-11T14:56:20.032Z,4.60
2022-12-11T14:58:57.118Z,4.60
2022-12-11T15:01:29.694Z,4.63
2022-12-11T15:04:09.205Z,4.62
2022-12-11T15:06:46.664Z,4.55
2022-12-11T15:09:21.683Z,4.52
2022-12-11T15:11:51.599Z,4.44
2022-12-11T15:14:24.075Z,4.41
2022-12-11T15:16:54.647Z,4.44
2022-12-11T15:19:29.554Z,4.44
2022-12-11T15:22:04.041Z,4.45
2022-12-11T15:24:39.133Z,4.42
2022-12-11T15:27:24.865Z,4.40
2022-12-11T15:29:54.446Z,4.35
2022-12-11T15:32:23.354Z,4.34
2022-12-11T15:34:54.470Z,4.39
2022-12-11T15:37:25.763Z,4.44
2022-12-11T15:39:55.829Z,4.46
2022-12-11T15:42:30.968Z,4.44
2022-12-11T15:45:01.424Z,4.42
2022-12-11T15:47:32.291Z,4.38
2022-12-11T15:50:02.988Z,4.44
2022-12-11T15:52:32.527Z,4.52
2022-12-11T15:55:00.623Z,4.36
2022-12-11T15:57:28.735Z,4.39
2022-12-11T15:59:57.058Z,4.48
2022-12-11T16:02:27.916Z,4.49
2022-12-11T16:04:57.302Z,4.45
2022-12-11T16:07:27.583Z,4.49
2022-12-11T16:09:55.735Z,4.47
2022-12-11T16:12:23.787Z,4.47
2022-12-11T16:14:51.913Z,4.43
2022-12-11T16:17:20.466Z,4.43
2022-12-11T16:19:49.910Z,4.55
2022-12-11T16:22:18.048Z,4.54
2022-12-11T16:24:46.156Z,4.54
2022-12-11T16:27:18.624Z,4.51
2022-12-11T16:29:50.423Z,4.46
2022-12-11T16:32:18.719Z,4.49
2022-12-11T16:34:47.000Z,4.49
2022-12-11T16:37:16.705Z,4.48
2022-12-11T16:39:45.978Z,4.45
2022-12-11T16:42:14.093Z,4.44
2022-12-11T16:44:44.367Z,4.49
2022-12-11T16:47:12.682Z,4.48
2022-12-11T16:49:40.864Z,4.59
2022-12-11T16:52:09.040Z,4.44
2022-12-11T16:54:38.792Z,4.34
2022-12-11T16:57:06.912Z,4.29
2022-12-11T16:59:37.364Z,4.26
2022-12-11T17:02:06.403Z,4.21
2022-12-11T17:04:34.524Z,4.25
2022-12-11T17:07:02.620Z,4.26
2022-12-11T17:09:30.729Z,4.31
2022-12-11T17:12:00.441Z,4.23
2022-12-11T17:14:28.820Z,4.20
2022-12-11T17:16:57.780Z,4.16
2022-12-11T17:19:25.915Z,4.22
2022-12-11T17:21:55.519Z,4.21
2022-12-11T17:24:23.788Z,4.12
2022-12-11T17:26:53.722Z,4.19
2022-12-11T17:29:23.159Z,4.14
2022-12-11T17:31:51.915Z,4.12
2022-12-11T17:34:20.100Z,4.18
2022-12-11T17:36:48.298Z,4.18
2022-12-11T17:39:16.644Z,4.22
2022-12-11T17:41:44.717Z,4.16
2022-12-11T17:44:12.944Z,4.16
2022-12-11T17:46:43.069Z,4.17
2022-12-11T17:49:11.421Z,4.19
2022-12-11T17:51:39.591Z,4.16
2022-12-11T17:54:07.688Z,4.24
2022-12-11T17:56:36.243Z,4.17
2022-12-11T17:59:04.992Z,4.24
2022-12-11T18:01:33.324Z,4.26
2022-12-11T18:04:02.979Z,4.27
2022-12-11T18:06:31.574Z,4.27
2022-12-11T18:08:59.763Z,4.28
2022-12-11T18:11:28.237Z,4.33
2022-12-11T18:13:56.577Z,4.33
2022-12-11T18:16:28.884Z,4.34
2022-12-11T18:18:57.473Z,4.29
2022-12-11T18:21:29.933Z,4.27
2022-12-11T18:23:58.937Z,4.24
2022-12-11T18:26:27.434Z,4.20
2022-12-11T18:28:56.219Z,4.23
2022-12-11T18:31:25.676Z,4.22
2022-12-11T18:33:54.211Z,4.19
2022-12-11T18:36:23.157Z,4.26
2022-12-11T18:38:52.588Z,4.25
2022-12-11T18:41:21.417Z,4.23
2022-12-11T18:43:49.585Z,4.21
2022-12-11T18:46:20.837Z,4.17
2022-12-11T18:48:50.028Z,4.22
2022-12-11T18:51:22.590Z,4.21
2022-12-11T18:53:52.893Z,4.24
2022-12-11T18:56:22.857Z,4.24
2022-12-11T18:58:52.947Z,4.17
2022-12-11T19:01:23.859Z,4.21
2022-12-11T19:04:00.799Z,4.18
2022-12-11T19:06:35.348Z,4.20
2022-12-11T19:09:08.789Z,4.16
2022-12-11T19:11:40.347Z,4.16
2022-12-11T19:14:09.711Z,4.17
2022-12-11T19:16:41.960Z,4.19
2022-12-11T19:19:13.354Z,4.19
2022-12-11T19:21:42.329Z,4.17
2022-12-11T19:24:15.674Z,4.18
2022-12-11T19:26:44.958Z,4.15
2022-12-11T19:29:22.200Z,4.17
2022-12-11T19:31:50.589Z,4.11
2022-12-11T19:34:19.056Z,4.04
2022-12-11T19:36:47.302Z,3.96
2022-12-11T19:39:16.877Z,3.87
2022-12-11T19:41:45.345Z,3.89
2022-12-11T19:44:14.002Z,3.87
2022-12-11T19:46:42.217Z,3.78
2022-12-11T19:49:12.465Z,3.81
2022-12-11T19:51:43.679Z,3.81
2022-12-11T19:54:17.125Z,3.86
2022-12-11T19:56:46.087Z,3.81
2022-12-11T19:59:16.904Z,3.67
2022-12-11T20:01:47.958Z,3.62
2022-12-11T20:04:18.353Z,3.65
2022-12-11T20:06:48.022Z,3.70
2022-12-11T20:09:18.014Z,3.69
2022-12-11T20:11:48.285Z,3.40
2022-12-11T20:14:22.064Z,3.37
2022-12-11T20:17:10.890Z,3.39
2022-12-11T20:19:40.106Z,3.36
2022-12-11T20:22:09.018Z,3.22
2022-12-11T20:24:38.755Z,3.29
2022-12-11T20:27:07.080Z,3.30
2022-12-11T20:29:35.185Z,3.36
2022-12-11T20:32:03.795Z,3.37
2022-12-11T20:34:33.807Z,3.33
2022-12-11T20:37:07.742Z,3.34
2022-12-11T20:39:35.904Z,3.34
2022-12-11T20:42:05.676Z,3.30
2022-12-11T20:44:33.901Z,3.36
2022-12-11T20:47:02.198Z,3.31
2022-12-11T20:49:30.256Z,3.40
2022-12-11T20:51:59.451Z,3.27
2022-12-11T20:54:27.566Z,3.29
2022-12-11T20:56:55.677Z,3.29
2022-12-11T20:59:26.073Z,3.28
2022-12-11T21:01:54.347Z,3.30
2022-12-11T21:04:22.547Z,3.36
2022-12-11T21:06:55.500Z,3.41
2022-12-11T21:09:26.065Z,3.45
2022-12-11T21:11:54.686Z,3.47
2022-12-11T21:14:24.097Z,3.48
2022-12-11T21:16:52.463Z,3.36
2022-12-11T21:19:21.424Z,3.43
2022-12-11T21:21:50.312Z,3.41
2022-12-11T21:24:21.365Z,3.37
2022-12-11T21:26:50.287Z,3.42
2022-12-11T21:29:18.988Z,3.44
2022-12-11T21:31:48.538Z,3.47
2022-12-11T21:34:20.628Z,3.49
2022-12-11T21:36:54.647Z,3.54
2022-12-11T21:39:22.847Z,3.60
2022-12-11T21:41:51.019Z,3.63
2022-12-11T21:47:08.718Z,3.57
2022-12-11T21:49:37.919Z,3.60
2022-12-11T21:52:08.322Z,3.61
2022-12-11T21:54:37.008Z,3.62
2022-12-11T21:57:05.360Z,3.56
2022-12-11T21:59:33.861Z,3.52
2022-12-11T22:02:02.050Z,3.58
2022-12-11T22:04:31.587Z,3.58
2022-12-11T22:06:59.732Z,3.61
2022-12-11T22:09:27.892Z,3.61
2022-12-11T22:11:58.669Z,3.57
2022-12-11T22:14:27.466Z,3.55
2022-12-11T22:16:55.737Z,3.61
2022-12-11T22:19:27.757Z,3.70
2022-12-11T22:22:00.451Z,3.68
2022-12-11T22:24:28.671Z,3.69
2022-12-11T22:26:56.805Z,3.69
2022-12-11T22:29:25.013Z,3.72
2022-12-11T22:31:53.423Z,3.71
2022-12-11T22:34:21.673Z,3.64
2022-12-11T22:36:49.895Z,3.64
2022-12-11T22:39:19.658Z,3.74
2022-12-11T22:41:47.746Z,3.68
2022-12-11T22:44:18.136Z,3.67
2022-12-11T22:46:49.959Z,3.76
2022-12-11T22:49:20.296Z,3.71
2022-12-11T22:51:48.930Z,3.66
2022-12-11T22:54:17.288Z,3.73
2022-12-11T22:56:46.844Z,3.71
2022-12-11T22:59:14.954Z,3.72
2022-12-11T23:01:43.215Z,3.59
2022-12-11T23:04:11.384Z,3.71
2022-12-11T23:06:39.940Z,3.79
2022-12-11T23:09:08.483Z,3.84
2022-12-11T23:11:38.842Z,3.69
2022-12-11T23:14:14.783Z,3.59
2022-12-11T23:16:43.747Z,3.64
2022-12-11T23:19:12.998Z,3.63
2022-12-11T23:21:41.492Z,3.65
2022-12-11T23:24:10.512Z,3.61
2022-12-11T23:26:39.133Z,3.57
2022-12-11T23:29:09.805Z,3.59
2022-12-11T23:31:37.965Z,3.60
2022-12-11T23:34:06.156Z,3.53
2022-12-11T23:36:34.722Z,3.58
2022-12-11T23:39:02.807Z,3.52
2022-12-11T23:41:30.949Z,3.51
2022-12-11T23:44:00.404Z,3.46
2022-12-11T23:46:29.898Z,3.41
2022-12-11T23:48:58.180Z,3.43
2022-12-11T23:51:27.025Z,3.37
2022-12-11T23:53:55.956Z,3.37
2022-12-11T23:56:28.311Z,3.37
2022-12-11T23:58:57.413Z,3.34
